sensor_id;sensor_type;location;lat;lon;timestamp;temperature;humidity
1381;DHT22;684;48.342;10.096;2023-11-21T00:02:17;10.00;18.10
1381;DHT22;684;48.342;10.096;2023-11-21T00:04:44;10.00;18.10
1381;DHT22;684;48.342;10.096;2023-11-21T00:07:11;10.00;18.30
1381;DHT22;684;48.342;10.096;2023-11-21T00:09:38;10.00;18.40
1381;DHT22;684;48.342;10.096;2023-11-21T00:12:05;10.00;18.50
1381;DHT22;684;48.342;10.096;2023-11-21T00:14:35;10.00;18.70
1381;DHT22;684;48.342;10.096;2023-11-21T00:17:02;10.00;18.80
1381;DHT22;684;48.342;10.096;2023-11-21T00:19:30;10.00;18.80
1381;DHT22;684;48.342;10.096;2023-11-21T00:21:57;10.00;18.80
1381;DHT22;684;48.342;10.096;2023-11-21T00:24:24;9.90;18.90
1381;DHT22;684;48.342;10.096;2023-11-21T00:26:51;9.90;19.50
1381;DHT22;684;48.342;10.096;2023-11-21T00:29:18;9.90;19.10
1381;DHT22;684;48.342;10.096;2023-11-21T00:31:45;9.90;19.20
1381;DHT22;684;48.342;10.096;2023-11-21T00:34:12;9.90;19.30
1381;DHT22;684;48.342;10.096;2023-11-21T00:36:40;9.90;19.50
1381;DHT22;684;48.342;10.096;2023-11-21T00:39:07;9.90;19.70
1381;DHT22;684;48.342;10.096;2023-11-21T00:41:34;9.90;19.70
1381;DHT22;684;48.342;10.096;2023-11-21T00:44:02;9.90;20.00
1381;DHT22;684;48.342;10.096;2023-11-21T00:46:28;9.80;20.00
1381;DHT22;684;48.342;10.096;2023-11-21T00:48:55;9.80;20.00
1381;DHT22;684;48.342;10.096;2023-11-21T00:51:22;9.80;20.10
1381;DHT22;684;48.342;10.096;2023-11-21T00:53:51;9.80;20.30
1381;DHT22;684;48.342;10.096;2023-11-21T00:56:18;9.80;20.50
1381;DHT22;684;48.342;10.096;2023-11-21T00:58:45;9.80;20.60
1381;DHT22;684;48.342;10.096;2023-11-21T01:01:15;9.80;20.70
1381;DHT22;684;48.342;10.096;2023-11-21T01:03:42;9.80;20.70
1381;DHT22;684;48.342;10.096;2023-11-21T01:06:09;9.80;20.70
1381;DHT22;684;48.342;10.096;2023-11-21T01:08:35;9.80;21.00
1381;DHT22;684;48.342;10.096;2023-11-21T01:11:04;9.80;21.00
1381;DHT22;684;48.342;10.096;2023-11-21T01:13:33;9.80;21.10
1381;DHT22;684;48.342;10.096;2023-11-21T01:16:01;9.80;21.20
1381;DHT22;684;48.342;10.096;2023-11-21T01:18:28;9.80;21.00
1381;DHT22;684;48.342;10.096;2023-11-21T01:20:55;9.70;21.10
1381;DHT22;684;48.342;10.096;2023-11-21T01:23:21;9.70;21.00
1381;DHT22;684;48.342;10.096;2023-11-21T01:25:49;9.80;20.90
1381;DHT22;684;48.342;10.096;2023-11-21T01:28:18;9.70;21.00
1381;DHT22;684;48.342;10.096;2023-11-21T01:30:45;9.70;21.00
1381;DHT22;684;48.342;10.096;2023-11-21T01:33:12;9.70;21.10
1381;DHT22;684;48.342;10.096;2023-11-21T01:35:41;9.70;21.10
1381;DHT22;684;48.342;10.096;2023-11-21T01:38:08;9.70;21.20
1381;DHT22;684;48.342;10.096;2023-11-21T01:40:35;9.70;21.30
1381;DHT22;684;48.342;10.096;2023-11-21T01:43:02;9.70;21.30
1381;DHT22;684;48.342;10.096;2023-11-21T01:45:30;9.70;21.30
1381;DHT22;684;48.342;10.096;2023-11-21T01:47:59;9.70;21.20
1381;DHT22;684;48.342;10.096;2023-11-21T01:50:27;9.70;21.20
1381;DHT22;684;48.342;10.096;2023-11-21T01:52:54;9.70;21.20
1381;DHT22;684;48.342;10.096;2023-11-21T01:55:22;9.70;21.30
1381;DHT22;684;48.342;10.096;2023-11-21T01:57:49;9.70;21.30
1381;DHT22;684;48.342;10.096;2023-11-21T02:00:16;9.70;21.40
1381;DHT22;684;48.342;10.096;2023-11-21T02:02:47;9.70;21.30
1381;DHT22;684;48.342;10.096;2023-11-21T02:05:15;9.70;21.40
1381;DHT22;684;48.342;10.096;2023-11-21T02:07:42;9.70;21.40
1381;DHT22;684;48.342;10.096;2023-11-21T02:10:09;9.70;21.40
1381;DHT22;684;48.342;10.096;2023-11-21T02:12:40;9.70;21.40
1381;DHT22;684;48.342;10.096;2023-11-21T02:15:08;9.70;21.60
1381;DHT22;684;48.342;10.096;2023-11-21T02:17:40;9.70;21.70
1381;DHT22;684;48.342;10.096;2023-11-21T02:20:09;9.60;21.80
1381;DHT22;684;48.342;10.096;2023-11-21T02:22:41;9.60;22.00
1381;DHT22;684;48.342;10.096;2023-11-21T02:25:09;9.60;22.10
1381;DHT22;684;48.342;10.096;2023-11-21T02:27:36;9.60;22.20
1381;DHT22;684;48.342;10.096;2023-11-21T02:30:04;9.60;22.10
1381;DHT22;684;48.342;10.096;2023-11-21T02:32:33;9.60;22.00
1381;DHT22;684;48.342;10.096;2023-11-21T02:35:00;9.60;21.90
1381;DHT22;684;48.342;10.096;2023-11-21T02:37:28;9.60;21.90
1381;DHT22;684;48.342;10.096;2023-11-21T02:39:55;9.60;22.10
1381;DHT22;684;48.342;10.096;2023-11-21T02:42:23;9.60;22.30
1381;DHT22;684;48.342;10.096;2023-11-21T02:44:50;9.60;22.50
1381;DHT22;684;48.342;10.096;2023-11-21T02:47:17;9.60;22.50
1381;DHT22;684;48.342;10.096;2023-11-21T02:49:44;9.50;22.40
1381;DHT22;684;48.342;10.096;2023-11-21T02:52:11;9.60;22.40
1381;DHT22;684;48.342;10.096;2023-11-21T02:54:37;9.60;22.40
1381;DHT22;684;48.342;10.096;2023-11-21T02:57:04;9.60;22.50
1381;DHT22;684;48.342;10.096;2023-11-21T02:59:34;9.60;22.60
1381;DHT22;684;48.342;10.096;2023-11-21T03:02:01;9.60;22.80
1381;DHT22;684;48.342;10.096;2023-11-21T03:04:28;9.60;22.60
1381;DHT22;684;48.342;10.096;2023-11-21T03:06:55;9.60;22.60
1381;DHT22;684;48.342;10.096;2023-11-21T03:09:21;9.60;22.50
1381;DHT22;684;48.342;10.096;2023-11-21T03:11:48;9.60;22.50
1381;DHT22;684;48.342;10.096;2023-11-21T03:14:15;9.60;22.40
1381;DHT22;684;48.342;10.096;2023-11-21T03:16:43;9.50;22.60
1381;DHT22;684;48.342;10.096;2023-11-21T03:19:10;9.40;22.70
1381;DHT22;684;48.342;10.096;2023-11-21T03:21:37;9.40;22.70
1381;DHT22;684;48.342;10.096;2023-11-21T03:24:04;9.40;22.80
1381;DHT22;684;48.342;10.096;2023-11-21T03:26:32;9.30;22.90
1381;DHT22;684;48.342;10.096;2023-11-21T03:28:59;9.30;22.90
1381;DHT22;684;48.342;10.096;2023-11-21T03:31:26;9.30;23.10
1381;DHT22;684;48.342;10.096;2023-11-21T03:33:54;9.30;23.40
1381;DHT22;684;48.342;10.096;2023-11-21T03:36:22;9.30;23.50
1381;DHT22;684;48.342;10.096;2023-11-21T03:38:50;9.30;23.70
1381;DHT22;684;48.342;10.096;2023-11-21T03:41:17;9.30;23.60
1381;DHT22;684;48.342;10.096;2023-11-21T03:43:44;9.30;23.80
1381;DHT22;684;48.342;10.096;2023-11-21T03:46:10;9.30;23.90
1381;DHT22;684;48.342;10.096;2023-11-21T03:48:37;9.40;23.80
1381;DHT22;684;48.342;10.096;2023-11-21T03:51:06;9.30;23.80
1381;DHT22;684;48.342;10.096;2023-11-21T03:53:33;9.30;23.80
1381;DHT22;684;48.342;10.096;2023-11-21T03:56:03;9.40;23.70
1381;DHT22;684;48.342;10.096;2023-11-21T03:58:30;9.30;23.90
1381;DHT22;684;48.342;10.096;2023-11-21T04:00:57;9.30;23.90
1381;DHT22;684;48.342;10.096;2023-11-21T04:03:23;9.40;23.80
1381;DHT22;684;48.342;10.096;2023-11-21T04:05:50;9.30;24.00
1381;DHT22;684;48.342;10.096;2023-11-21T04:08:18;9.30;24.10
1381;DHT22;684;48.342;10.096;2023-11-21T04:10:45;9.30;24.10
1381;DHT22;684;48.342;10.096;2023-11-21T04:13:12;9.30;24.00
1381;DHT22;684;48.342;10.096;2023-11-21T04:15:39;9.30;24.20
1381;DHT22;684;48.342;10.096;2023-11-21T04:18:06;9.30;24.20
1381;DHT22;684;48.342;10.096;2023-11-21T04:20:32;9.30;24.20
1381;DHT22;684;48.342;10.096;2023-11-21T04:22:59;9.30;24.30
1381;DHT22;684;48.342;10.096;2023-11-21T04:25:27;9.30;24.10
1381;DHT22;684;48.342;10.096;2023-11-21T04:27:54;9.30;24.20
1381;DHT22;684;48.342;10.096;2023-11-21T04:30:21;9.40;24.20
1381;DHT22;684;48.342;10.096;2023-11-21T04:32:47;9.30;24.90
1381;DHT22;684;48.342;10.096;2023-11-21T04:35:14;9.40;24.30
1381;DHT22;684;48.342;10.096;2023-11-21T04:37:41;9.40;24.40
1381;DHT22;684;48.342;10.096;2023-11-21T04:40:09;9.40;24.20
1381;DHT22;684;48.342;10.096;2023-11-21T04:42:36;9.40;24.20
1381;DHT22;684;48.342;10.096;2023-11-21T04:45:04;9.40;24.30
1381;DHT22;684;48.342;10.096;2023-11-21T04:47:34;9.30;24.30
1381;DHT22;684;48.342;10.096;2023-11-21T04:50:02;9.30;24.40
1381;DHT22;684;48.342;10.096;2023-11-21T04:52:29;9.30;24.40
1381;DHT22;684;48.342;10.096;2023-11-21T04:54:56;9.40;24.20
1381;DHT22;684;48.342;10.096;2023-11-21T04:57:24;9.40;24.30
1381;DHT22;684;48.342;10.096;2023-11-21T04:59:52;9.30;24.30
1381;DHT22;684;48.342;10.096;2023-11-21T05:02:19;9.30;25.10
1381;DHT22;684;48.342;10.096;2023-11-21T05:04:46;9.30;24.50
1381;DHT22;684;48.342;10.096;2023-11-21T05:07:13;9.30;24.70
1381;DHT22;684;48.342;10.096;2023-11-21T05:09:42;9.30;24.70
1381;DHT22;684;48.342;10.096;2023-11-21T05:12:11;9.30;24.90
1381;DHT22;684;48.342;10.096;2023-11-21T05:14:38;9.30;25.00
1381;DHT22;684;48.342;10.096;2023-11-21T05:17:06;9.30;25.10
1381;DHT22;684;48.342;10.096;2023-11-21T05:19:34;9.30;25.10
1381;DHT22;684;48.342;10.096;2023-11-21T05:22:01;9.20;25.20
1381;DHT22;684;48.342;10.096;2023-11-21T05:24:28;9.30;25.20
1381;DHT22;684;48.342;10.096;2023-11-21T05:26:55;9.20;25.30
1381;DHT22;684;48.342;10.096;2023-11-21T05:29:22;9.20;25.60
1381;DHT22;684;48.342;10.096;2023-11-21T05:31:49;9.20;25.50
1381;DHT22;684;48.342;10.096;2023-11-21T05:34:17;9.30;25.60
1381;DHT22;684;48.342;10.096;2023-11-21T05:36:46;9.20;25.40
1381;DHT22;684;48.342;10.096;2023-11-21T05:39:14;9.20;25.40
1381;DHT22;684;48.342;10.096;2023-11-21T05:41:39;9.20;25.40
1381;DHT22;684;48.342;10.096;2023-11-21T05:44:06;9.20;25.30
1381;DHT22;684;48.342;10.096;2023-11-21T05:46:33;9.20;25.30
1381;DHT22;684;48.342;10.096;2023-11-21T05:49:00;9.20;25.30
1381;DHT22;684;48.342;10.096;2023-11-21T05:51:28;9.20;25.30
1381;DHT22;684;48.342;10.096;2023-11-21T05:53:54;9.20;25.30
1381;DHT22;684;48.342;10.096;2023-11-21T05:56:21;9.20;25.50
1381;DHT22;684;48.342;10.096;2023-11-21T05:58:48;9.10;25.50
1381;DHT22;684;48.342;10.096;2023-11-21T06:01:15;9.10;25.60
1381;DHT22;684;48.342;10.096;2023-11-21T06:03:42;9.00;25.70
1381;DHT22;684;48.342;10.096;2023-11-21T06:06:09;9.00;25.80
1381;DHT22;684;48.342;10.096;2023-11-21T06:08:37;9.00;26.00
1381;DHT22;684;48.342;10.096;2023-11-21T06:11:04;9.00;26.00
1381;DHT22;684;48.342;10.096;2023-11-21T06:13:31;9.00;26.00
1381;DHT22;684;48.342;10.096;2023-11-21T06:15:58;8.90;26.00
1381;DHT22;684;48.342;10.096;2023-11-21T06:18:25;8.90;26.10
1381;DHT22;684;48.342;10.096;2023-11-21T06:20:52;8.90;26.30
1381;DHT22;684;48.342;10.096;2023-11-21T06:23:19;8.90;26.40
1381;DHT22;684;48.342;10.096;2023-11-21T06:25:47;8.90;26.40
1381;DHT22;684;48.342;10.096;2023-11-21T06:28:14;8.90;26.50
1381;DHT22;684;48.342;10.096;2023-11-21T06:30:43;8.90;26.50
1381;DHT22;684;48.342;10.096;2023-11-21T06:33:10;8.90;26.50
1381;DHT22;684;48.342;10.096;2023-11-21T06:35:37;9.00;26.50
1381;DHT22;684;48.342;10.096;2023-11-21T06:38:05;9.00;26.50
1381;DHT22;684;48.342;10.096;2023-11-21T06:40:32;9.00;26.50
1381;DHT22;684;48.342;10.096;2023-11-21T06:43:01;9.00;26.40
1381;DHT22;684;48.342;10.096;2023-11-21T06:45:28;9.00;26.20
1381;DHT22;684;48.342;10.096;2023-11-21T06:47:54;9.00;26.40
1381;DHT22;684;48.342;10.096;2023-11-21T06:50:21;9.00;26.40
1381;DHT22;684;48.342;10.096;2023-11-21T06:52:48;9.00;26.50
1381;DHT22;684;48.342;10.096;2023-11-21T06:55:15;9.00;26.50
1381;DHT22;684;48.342;10.096;2023-11-21T06:57:42;9.00;26.40
1381;DHT22;684;48.342;10.096;2023-11-21T07:00:12;9.00;26.40
1381;DHT22;684;48.342;10.096;2023-11-21T07:02:40;9.00;26.40
1381;DHT22;684;48.342;10.096;2023-11-21T07:05:07;9.10;26.30
1381;DHT22;684;48.342;10.096;2023-11-21T07:07:34;9.10;26.20
1381;DHT22;684;48.342;10.096;2023-11-21T07:10:02;9.10;26.40
1381;DHT22;684;48.342;10.096;2023-11-21T07:14:56;9.10;26.30
1381;DHT22;684;48.342;10.096;2023-11-21T07:17:24;9.10;26.20
1381;DHT22;684;48.342;10.096;2023-11-21T07:19:51;9.10;26.20
1381;DHT22;684;48.342;10.096;2023-11-21T07:22:18;9.20;26.30
1381;DHT22;684;48.342;10.096;2023-11-21T07:24:48;9.20;26.20
1381;DHT22;684;48.342;10.096;2023-11-21T07:27:15;9.20;26.10
1381;DHT22;684;48.342;10.096;2023-11-21T07:29:42;9.20;26.10
1381;DHT22;684;48.342;10.096;2023-11-21T07:32:09;9.30;26.00
1381;DHT22;684;48.342;10.096;2023-11-21T07:34:37;9.30;25.90
1381;DHT22;684;48.342;10.096;2023-11-21T07:37:04;9.20;25.90
1381;DHT22;684;48.342;10.096;2023-11-21T07:39:31;9.30;25.90
1381;DHT22;684;48.342;10.096;2023-11-21T07:41:58;9.20;25.90
1381;DHT22;684;48.342;10.096;2023-11-21T07:44:25;9.30;25.90
1381;DHT22;684;48.342;10.096;2023-11-21T07:46:52;9.30;25.60
1381;DHT22;684;48.342;10.096;2023-11-21T07:49:22;9.30;25.70
1381;DHT22;684;48.342;10.096;2023-11-21T07:51:50;9.40;25.70
1381;DHT22;684;48.342;10.096;2023-11-21T07:54:17;9.40;25.50
1381;DHT22;684;48.342;10.096;2023-11-21T07:56:44;9.50;25.40
1381;DHT22;684;48.342;10.096;2023-11-21T07:59:11;9.50;25.30
1381;DHT22;684;48.342;10.096;2023-11-21T08:01:38;9.40;25.30
1381;DHT22;684;48.342;10.096;2023-11-21T08:04:05;9.60;25.30
1381;DHT22;684;48.342;10.096;2023-11-21T08:06:33;9.60;25.00
1381;DHT22;684;48.342;10.096;2023-11-21T08:09:02;9.70;25.40
1381;DHT22;684;48.342;10.096;2023-11-21T08:11:29;9.70;24.70
1381;DHT22;684;48.342;10.096;2023-11-21T08:13:57;9.70;24.40
1381;DHT22;684;48.342;10.096;2023-11-21T08:16:24;9.70;24.50
1381;DHT22;684;48.342;10.096;2023-11-21T08:18:51;9.80;23.80
1381;DHT22;684;48.342;10.096;2023-11-21T08:21:18;9.80;23.70
1381;DHT22;684;48.342;10.096;2023-11-21T08:23:45;9.80;23.80
1381;DHT22;684;48.342;10.096;2023-11-21T08:26:16;9.80;23.90
1381;DHT22;684;48.342;10.096;2023-11-21T08:28:43;9.80;23.60
1381;DHT22;684;48.342;10.096;2023-11-21T08:31:10;9.80;23.20
1381;DHT22;684;48.342;10.096;2023-11-21T08:33:37;9.90;23.40
1381;DHT22;684;48.342;10.096;2023-11-21T08:36:07;9.90;23.40
1381;DHT22;684;48.342;10.096;2023-11-21T08:38:34;9.90;23.30
1381;DHT22;684;48.342;10.096;2023-11-21T08:41:04;10.00;23.20
1381;DHT22;684;48.342;10.096;2023-11-21T08:43:34;10.00;22.90
1381;DHT22;684;48.342;10.096;2023-11-21T08:46:01;10.10;22.80
1381;DHT22;684;48.342;10.096;2023-11-21T08:48:28;10.20;22.60
1381;DHT22;684;48.342;10.096;2023-11-21T08:50:55;10.20;22.40
1381;DHT22;684;48.342;10.096;2023-11-21T08:53:22;10.30;22.30
1381;DHT22;684;48.342;10.096;2023-11-21T08:55:51;10.40;22.30
1381;DHT22;684;48.342;10.096;2023-11-21T08:58:19;10.50;22.30
1381;DHT22;684;48.342;10.096;2023-11-21T09:00:48;10.60;22.50
1381;DHT22;684;48.342;10.096;2023-11-21T09:03:15;10.60;21.50
1381;DHT22;684;48.342;10.096;2023-11-21T09:05:41;10.70;21.40
1381;DHT22;684;48.342;10.096;2023-11-21T09:08:08;10.80;21.10
1381;DHT22;684;48.342;10.096;2023-11-21T09:10:35;10.90;20.70
1381;DHT22;684;48.342;10.096;2023-11-21T09:13:02;11.00;20.40
1381;DHT22;684;48.342;10.096;2023-11-21T09:15:29;11.10;20.10
1381;DHT22;684;48.342;10.096;2023-11-21T09:17:57;11.20;19.80
1381;DHT22;684;48.342;10.096;2023-11-21T09:20:24;11.30;19.70
1381;DHT22;684;48.342;10.096;2023-11-21T09:22:50;11.40;19.40
1381;DHT22;684;48.342;10.096;2023-11-21T09:25:17;11.40;19.10
1381;DHT22;684;48.342;10.096;2023-11-21T09:27:44;11.50;19.10
1381;DHT22;684;48.342;10.096;2023-11-21T09:30:12;11.50;19.00
1381;DHT22;684;48.342;10.096;2023-11-21T09:32:40;11.50;18.60
1381;DHT22;684;48.342;10.096;2023-11-21T09:35:11;11.60;18.20
1381;DHT22;684;48.342;10.096;2023-11-21T09:37:39;11.80;18.20
1381;DHT22;684;48.342;10.096;2023-11-21T09:40:10;11.90;18.20
1381;DHT22;684;48.342;10.096;2023-11-21T09:42:40;12.30;17.70
1381;DHT22;684;48.342;10.096;2023-11-21T09:45:15;12.60;17.00
1381;DHT22;684;48.342;10.096;2023-11-21T09:47:45;12.90;16.40
1381;DHT22;684;48.342;10.096;2023-11-21T09:50:17;13.00;16.10
1381;DHT22;684;48.342;10.096;2023-11-21T09:52:55;13.10;15.30
1381;DHT22;684;48.342;10.096;2023-11-21T09:55:26;13.20;14.70
1381;DHT22;684;48.342;10.096;2023-11-21T09:57:54;13.20;14.30
1381;DHT22;684;48.342;10.096;2023-11-21T10:00:22;13.30;14.20
1381;DHT22;684;48.342;10.096;2023-11-21T10:02:51;13.50;13.90
1381;DHT22;684;48.342;10.096;2023-11-21T10:05:20;14.00;13.40
1381;DHT22;684;48.342;10.096;2023-11-21T10:07:48;14.50;12.30
1381;DHT22;684;48.342;10.096;2023-11-21T10:10:18;15.00;11.70
1381;DHT22;684;48.342;10.096;2023-11-21T10:12:49;15.40;10.70
1381;DHT22;684;48.342;10.096;2023-11-21T10:15:21;15.70;9.40
1381;DHT22;684;48.342;10.096;2023-11-21T10:17:49;16.20;8.80
1381;DHT22;684;48.342;10.096;2023-11-21T10:20:20;16.60;8.50
1381;DHT22;684;48.342;10.096;2023-11-21T10:22:47;16.80;6.80
1381;DHT22;684;48.342;10.096;2023-11-21T10:25:13;16.70;7.10
1381;DHT22;684;48.342;10.096;2023-11-21T10:27:41;16.70;7.70
1381;DHT22;684;48.342;10.096;2023-11-21T10:30:09;16.80;7.80
1381;DHT22;684;48.342;10.096;2023-11-21T10:32:37;17.10;6.80
1381;DHT22;684;48.342;10.096;2023-11-21T10:35:06;17.50;6.50
1381;DHT22;684;48.342;10.096;2023-11-21T10:37:37;17.70;4.60
1381;DHT22;684;48.342;10.096;2023-11-21T10:40:06;17.90;4.50
1381;DHT22;684;48.342;10.096;2023-11-21T10:42:37;17.90;3.60
1381;DHT22;684;48.342;10.096;2023-11-21T10:45:04;17.80;3.30
1381;DHT22;684;48.342;10.096;2023-11-21T10:47:38;17.50;3.20
1381;DHT22;684;48.342;10.096;2023-11-21T10:50:05;17.20;3.30
1381;DHT22;684;48.342;10.096;2023-11-21T10:52:37;17.30;4.50
1381;DHT22;684;48.342;10.096;2023-11-21T10:55:16;17.40;4.10
1381;DHT22;684;48.342;10.096;2023-11-21T10:57:46;17.50;3.80
1381;DHT22;684;48.342;10.096;2023-11-21T11:00:16;17.50;3.40
1381;DHT22;684;48.342;10.096;2023-11-21T11:02:47;17.40;3.70
1381;DHT22;684;48.342;10.096;2023-11-21T11:05:15;17.20;3.30
1381;DHT22;684;48.342;10.096;2023-11-21T11:07:48;17.10;3.70
1381;DHT22;684;48.342;10.096;2023-11-21T11:10:18;17.30;4.20
1381;DHT22;684;48.342;10.096;2023-11-21T11:12:47;17.40;4.00
1381;DHT22;684;48.342;10.096;2023-11-21T11:15:15;17.60;4.00
1381;DHT22;684;48.342;10.096;2023-11-21T11:17:43;17.60;3.60
1381;DHT22;684;48.342;10.096;2023-11-21T11:20:12;17.70;3.30
1381;DHT22;684;48.342;10.096;2023-11-21T11:22:46;17.80;2.00
1381;DHT22;684;48.342;10.096;2023-11-21T11:25:28;17.80;2.00
1381;DHT22;684;48.342;10.096;2023-11-21T11:28:03;17.80;2.20
1381;DHT22;684;48.342;10.096;2023-11-21T11:30:41;18.10;1.50
1381;DHT22;684;48.342;10.096;2023-11-21T11:33:18;18.50;1.40
1381;DHT22;684;48.342;10.096;2023-11-21T11:35:55;18.80;1.00
1381;DHT22;684;48.342;10.096;2023-11-21T11:38:23;19.00;1.00
1381;DHT22;684;48.342;10.096;2023-11-21T11:40:54;19.60;1.00
1381;DHT22;684;48.342;10.096;2023-11-21T11:43:27;20.20;1.00
1381;DHT22;684;48.342;10.096;2023-11-21T11:45:56;20.80;1.00
1381;DHT22;684;48.342;10.096;2023-11-21T11:48:24;21.10;1.00
1381;DHT22;684;48.342;10.096;2023-11-21T11:51:04;20.80;1.00
1381;DHT22;684;48.342;10.096;2023-11-21T11:53:36;20.30;1.00
1381;DHT22;684;48.342;10.096;2023-11-21T11:56:25;19.90;1.00
1381;DHT22;684;48.342;10.096;2023-11-21T11:58:53;19.50;1.00
1381;DHT22;684;48.342;10.096;2023-11-21T12:01:20;19.20;1.00
1381;DHT22;684;48.342;10.096;2023-11-21T12:04:25;18.80;1.00
1381;DHT22;684;48.342;10.096;2023-11-21T12:06:59;18.40;1.00
1381;DHT22;684;48.342;10.096;2023-11-21T12:09:28;18.10;1.00
1381;DHT22;684;48.342;10.096;2023-11-21T12:11:58;17.80;1.00
1381;DHT22;684;48.342;10.096;2023-11-21T12:14:25;17.60;1.00
1381;DHT22;684;48.342;10.096;2023-11-21T12:16:53;17.50;1.00
1381;DHT22;684;48.342;10.096;2023-11-21T12:19:20;17.40;1.00
1381;DHT22;684;48.342;10.096;2023-11-21T12:21:48;17.20;1.00
1381;DHT22;684;48.342;10.096;2023-11-21T12:24:16;17.00;1.00
1381;DHT22;684;48.342;10.096;2023-11-21T12:26:43;16.90;1.50
1381;DHT22;684;48.342;10.096;2023-11-21T12:29:11;16.80;1.90
1381;DHT22;684;48.342;10.096;2023-11-21T12:31:38;16.60;2.00
1381;DHT22;684;48.342;10.096;2023-11-21T12:34:06;16.40;2.30
1381;DHT22;684;48.342;10.096;2023-11-21T12:36:34;16.20;2.70
1381;DHT22;684;48.342;10.096;2023-11-21T12:39:02;16.00;3.60
1381;DHT22;684;48.342;10.096;2023-11-21T12:41:29;15.90;4.90
1381;DHT22;684;48.342;10.096;2023-11-21T12:43:57;15.70;5.30
1381;DHT22;684;48.342;10.096;2023-11-21T12:46:25;15.50;6.10
1381;DHT22;684;48.342;10.096;2023-11-21T12:48:56;15.20;7.00
1381;DHT22;684;48.342;10.096;2023-11-21T12:51:23;15.10;7.50
1381;DHT22;684;48.342;10.096;2023-11-21T12:53:51;14.90;8.10
1381;DHT22;684;48.342;10.096;2023-11-21T12:56:21;14.70;8.60
1381;DHT22;684;48.342;10.096;2023-11-21T12:58:49;14.50;8.80
1381;DHT22;684;48.342;10.096;2023-11-21T13:01:17;14.30;9.20
1381;DHT22;684;48.342;10.096;2023-11-21T13:03:47;14.10;9.50
1381;DHT22;684;48.342;10.096;2023-11-21T13:06:18;14.00;10.00
1381;DHT22;684;48.342;10.096;2023-11-21T13:08:45;13.80;10.40
1381;DHT22;684;48.342;10.096;2023-11-21T13:11:12;13.60;11.10
1381;DHT22;684;48.342;10.096;2023-11-21T13:13:41;13.50;11.90
1381;DHT22;684;48.342;10.096;2023-11-21T13:16:08;13.40;12.70
1381;DHT22;684;48.342;10.096;2023-11-21T13:18:35;13.20;13.20
1381;DHT22;684;48.342;10.096;2023-11-21T13:21:05;13.10;13.50
1381;DHT22;684;48.342;10.096;2023-11-21T13:23:36;13.00;13.60
1381;DHT22;684;48.342;10.096;2023-11-21T13:26:04;12.80;13.90
1381;DHT22;684;48.342;10.096;2023-11-21T13:28:31;12.60;14.20
1381;DHT22;684;48.342;10.096;2023-11-21T13:30:58;12.40;14.90
1381;DHT22;684;48.342;10.096;2023-11-21T13:33:28;12.20;15.60
1381;DHT22;684;48.342;10.096;2023-11-21T13:35:55;12.10;16.00
1381;DHT22;684;48.342;10.096;2023-11-21T13:38:24;12.00;16.30
1381;DHT22;684;48.342;10.096;2023-11-21T13:40:57;12.00;16.30
1381;DHT22;684;48.342;10.096;2023-11-21T13:43:26;11.90;16.30
1381;DHT22;684;48.342;10.096;2023-11-21T13:45:54;11.80;16.70
1381;DHT22;684;48.342;10.096;2023-11-21T13:48:25;11.60;17.60
1381;DHT22;684;48.342;10.096;2023-11-21T13:50:58;11.50;18.00
1381;DHT22;684;48.342;10.096;2023-11-21T13:53:32;11.50;17.90
1381;DHT22;684;48.342;10.096;2023-11-21T13:56:02;11.50;18.00
1381;DHT22;684;48.342;10.096;2023-11-21T13:58:28;11.50;19.00
1381;DHT22;684;48.342;10.096;2023-11-21T14:01:07;11.50;19.00
1381;DHT22;684;48.342;10.096;2023-11-21T14:03:42;11.30;19.40
1381;DHT22;684;48.342;10.096;2023-11-21T14:06:17;11.30;19.90
1381;DHT22;684;48.342;10.096;2023-11-21T14:08:51;11.20;19.90
1381;DHT22;684;48.342;10.096;2023-11-21T14:11:18;11.10;20.20
1381;DHT22;684;48.342;10.096;2023-11-21T14:13:47;11.10;20.70
1381;DHT22;684;48.342;10.096;2023-11-21T14:16:14;11.10;20.10
1381;DHT22;684;48.342;10.096;2023-11-21T14:18:42;11.20;20.30
1381;DHT22;684;48.342;10.096;2023-11-21T14:21:22;11.10;20.60
1381;DHT22;684;48.342;10.096;2023-11-21T14:23:51;11.10;21.40
1381;DHT22;684;48.342;10.096;2023-11-21T14:26:17;11.00;21.60
1381;DHT22;684;48.342;10.096;2023-11-21T14:28:44;11.00;21.80
1381;DHT22;684;48.342;10.096;2023-11-21T14:31:13;11.00;21.50
1381;DHT22;684;48.342;10.096;2023-11-21T14:33:43;11.00;21.80
1381;DHT22;684;48.342;10.096;2023-11-21T14:36:10;11.00;21.40
1381;DHT22;684;48.342;10.096;2023-11-21T14:38:37;11.00;21.20
1381;DHT22;684;48.342;10.096;2023-11-21T14:41:06;11.00;21.30
1381;DHT22;684;48.342;10.096;2023-11-21T14:43:34;11.00;21.60
1381;DHT22;684;48.342;10.096;2023-11-21T14:46:01;10.90;22.20
1381;DHT22;684;48.342;10.096;2023-11-21T14:48:29;10.90;22.20
1381;DHT22;684;48.342;10.096;2023-11-21T14:51:08;10.90;22.20
1381;DHT22;684;48.342;10.096;2023-11-21T14:53:56;10.90;22.40
1381;DHT22;684;48.342;10.096;2023-11-21T14:56:27;10.90;22.30
1381;DHT22;684;48.342;10.096;2023-11-21T14:58:57;10.90;22.40
1381;DHT22;684;48.342;10.096;2023-11-21T15:01:31;10.80;22.60
1381;DHT22;684;48.342;10.096;2023-11-21T15:04:10;10.90;22.50
1381;DHT22;684;48.342;10.096;2023-11-21T15:06:46;10.90;22.30
1381;DHT22;684;48.342;10.096;2023-11-21T15:09:13;10.90;22.40
1381;DHT22;684;48.342;10.096;2023-11-21T15:12:06;10.90;23.00
1381;DHT22;684;48.342;10.096;2023-11-21T15:14:41;10.80;22.30
1381;DHT22;684;48.342;10.096;2023-11-21T15:17:08;10.80;22.40
1381;DHT22;684;48.342;10.096;2023-11-21T15:19:35;10.80;22.30
1381;DHT22;684;48.342;10.096;2023-11-21T15:22:02;10.80;22.20
1381;DHT22;684;48.342;10.096;2023-11-21T15:24:29;10.80;22.50
1381;DHT22;684;48.342;10.096;2023-11-21T15:26:56;10.80;22.40
1381;DHT22;684;48.342;10.096;2023-11-21T15:29:24;10.80;22.50
1381;DHT22;684;48.342;10.096;2023-11-21T15:31:51;10.70;22.70
1381;DHT22;684;48.342;10.096;2023-11-21T15:34:21;10.70;22.70
1381;DHT22;684;48.342;10.096;2023-11-21T15:36:48;10.70;23.20
1381;DHT22;684;48.342;10.096;2023-11-21T15:39:18;10.70;23.10
1381;DHT22;684;48.342;10.096;2023-11-21T15:41:47;10.70;23.30
1381;DHT22;684;48.342;10.096;2023-11-21T15:44:13;10.70;23.00
1381;DHT22;684;48.342;10.096;2023-11-21T15:46:42;10.70;23.20
1381;DHT22;684;48.342;10.096;2023-11-21T15:49:09;10.70;23.90
1381;DHT22;684;48.342;10.096;2023-11-21T15:51:39;10.70;23.80
1381;DHT22;684;48.342;10.096;2023-11-21T15:54:06;10.70;24.10
1381;DHT22;684;48.342;10.096;2023-11-21T15:56:34;10.70;24.00
1381;DHT22;684;48.342;10.096;2023-11-21T15:59:01;10.70;24.00
1381;DHT22;684;48.342;10.096;2023-11-21T16:01:29;10.70;24.20
1381;DHT22;684;48.342;10.096;2023-11-21T16:03:57;10.60;24.90
1381;DHT22;684;48.342;10.096;2023-11-21T16:06:26;10.60;24.90
1381;DHT22;684;48.342;10.096;2023-11-21T16:08:54;10.60;24.90
1381;DHT22;684;48.342;10.096;2023-11-21T16:11:24;10.60;24.70
1381;DHT22;684;48.342;10.096;2023-11-21T16:13:51;10.60;24.50
1381;DHT22;684;48.342;10.096;2023-11-21T16:16:20;10.70;24.80
1381;DHT22;684;48.342;10.096;2023-11-21T16:18:47;10.70;24.60
1381;DHT22;684;48.342;10.096;2023-11-21T16:21:16;10.80;23.20
1381;DHT22;684;48.342;10.096;2023-11-21T16:23:42;10.80;22.90